Time;durP1;ratioP1;P1;durP2;ratioP2;P2;SDS_P1;SDS_P2;PMS_P1;PMS_P2;Temp;Humidity;BMP_temperature;BMP_pressure;BME280_temperature;BME280_humidity;BME280_pressure;Samples;Min_cycle;Max_cycle;Signal;HPM_P1;HPM_P2
2022/10/11 00:00:21;;;;;;;10.65;7.78;;;11.60;99.90;;;;;;5220476;28;20035;-73
2022/10/11 00:02:52;;;;;;;10.18;7.72;;;11.60;99.90;;;;;;5203438;28;20041;-72
2022/10/11 00:05:24;;;;;;;11.82;8.05;;;11.70;99.90;;;;;;5182981;28;20053;-73
2022/10/11 00:08:04;;;;;;;10.05;7.88;;;11.60;99.90;;;;;;5197061;28;20027;-73
2022/10/11 00:10:35;;;;;;;10.80;8.43;;;11.60;99.90;;;;;;5220058;28;20036;-73
2022/10/11 00:13:07;;;;;;;16.48;8.07;;;11.60;99.90;;;;;;5216955;28;20020;-71
2022/10/11 00:15:39;;;;;;;12.07;7.60;;;11.60;99.90;;;;;;5214588;28;20036;-71
2022/10/11 00:18:10;;;;;;;11.02;7.70;;;11.60;99.90;;;;;;5194643;28;20041;-74
2022/10/11 00:20:44;;;;;;;11.80;8.18;;;11.50;99.90;;;;;;5166710;28;20033;-73
2022/10/11 00:23:19;;;;;;;16.90;8.48;;;11.60;99.90;;;;;;5199130;28;20079;-73
2022/10/11 00:25:59;;;;;;;13.80;7.65;;;11.60;99.90;;;;;;5200395;28;20037;-73
2022/10/11 00:28:30;;;;;;;9.55;7.40;;;11.60;99.90;;;;;;5220681;28;20013;-73
2022/10/11 00:31:04;;;;;;;9.55;7.68;;;11.60;99.90;;;;;;5220432;28;20025;-73
2022/10/11 00:33:39;;;;;;;13.88;8.40;;;11.60;99.90;;;;;;5218608;28;20037;-72
2022/10/11 00:36:15;;;;;;;9.38;6.78;;;11.60;99.90;;;;;;5205819;28;20037;-73
2022/10/11 00:38:47;;;;;;;12.00;8.07;;;11.60;99.90;;;;;;5224709;28;20027;-72
2022/10/11 00:41:21;;;;;;;10.93;8.23;;;11.60;99.90;;;;;;5226096;28;20051;-72
2022/10/11 00:44:11;;;;;;;10.82;8.00;;;11.70;99.90;;;;;;5226351;28;20029;-73
2022/10/11 00:46:53;;;;;;;10.13;7.68;;;11.70;99.90;;;;;;5220319;28;20047;-73
2022/10/11 00:49:40;;;;;;;10.35;7.35;;;11.70;99.90;;;;;;5206211;28;20052;-73
2022/10/11 00:52:32;;;;;;;11.00;7.72;;;11.70;99.90;;;;;;5224400;28;20013;-73
2022/10/11 00:55:11;;;;;;;11.95;7.88;;;11.80;99.90;;;;;;5189852;28;20029;-73
2022/10/11 00:57:46;;;;;;;8.82;7.18;;;11.80;99.90;;;;;;5198743;28;20028;-72
2022/10/11 01:00:18;;;;;;;13.55;7.80;;;11.90;99.90;;;;;;5206210;28;20575;-73
2022/10/11 01:02:50;;;;;;;9.25;6.72;;;11.90;99.90;;;;;;5205271;28;20045;-73
2022/10/11 01:05:22;;;;;;;9.05;7.80;;;11.90;99.90;;;;;;5201824;28;20038;-73
2022/10/11 01:07:54;;;;;;;10.55;7.53;;;11.90;99.90;;;;;;5217284;28;20487;-73
2022/10/11 01:10:29;;;;;;;10.52;7.50;;;11.90;99.90;;;;;;5205155;28;20028;-73
2022/10/11 01:13:19;;;;;;;14.65;7.75;;;11.80;99.90;;;;;;5218861;28;20395;-73
2022/10/11 01:16:10;;;;;;;10.52;7.38;;;11.90;99.90;;;;;;5202975;28;20017;-72
2022/10/11 01:19:07;;;;;;;14.57;8.02;;;11.90;99.90;;;;;;5201841;28;20033;-73
2022/10/11 01:21:50;;;;;;;9.65;7.43;;;11.90;99.90;;;;;;5222918;28;20144;-72
2022/10/11 01:24:27;;;;;;;12.43;7.72;;;11.80;99.90;;;;;;5215128;28;20039;-72
2022/10/11 01:27:24;;;;;;;9.95;7.60;;;11.80;99.90;;;;;;5223392;28;20039;-73
2022/10/11 01:30:27;;;;;;;11.18;7.07;;;11.80;99.90;;;;;;5203225;28;20021;-73
2022/10/11 01:32:58;;;;;;;11.98;8.07;;;11.80;99.90;;;;;;5226631;28;20044;-73
2022/10/11 01:35:38;;;;;;;10.43;8.05;;;11.80;99.90;;;;;;5226362;28;20029;-73
2022/10/11 01:38:31;;;;;;;11.32;8.32;;;11.80;99.90;;;;;;5243399;28;20512;-73
2022/10/11 01:41:15;;;;;;;11.95;7.55;;;11.80;99.90;;;;;;5215114;28;20017;-71
2022/10/11 01:43:54;;;;;;;12.15;8.15;;;11.80;99.90;;;;;;5223122;28;20021;-72
2022/10/11 01:46:32;;;;;;;10.60;7.78;;;11.80;99.90;;;;;;5181654;28;20041;-71
2022/10/11 01:49:03;;;;;;;11.77;8.00;;;11.70;99.90;;;;;;5195686;28;20028;-72
2022/10/11 01:51:47;;;;;;;11.82;7.88;;;11.70;99.90;;;;;;5216664;28;20029;-71
2022/10/11 01:54:46;;;;;;;12.48;7.70;;;11.70;99.90;;;;;;5223055;28;20024;-73
2022/10/11 01:57:36;;;;;;;11.85;7.72;;;11.70;99.90;;;;;;5187534;28;20044;-73
2022/10/11 02:00:18;;;;;;;13.25;7.85;;;11.60;99.90;;;;;;5223016;28;20037;-72
2022/10/11 02:02:54;;;;;;;10.52;8.10;;;11.60;99.90;;;;;;5221455;28;20025;-73
2022/10/11 02:06:10;;;;;;;10.60;8.00;;;11.60;99.90;;;;;;5188437;28;20046;-71
2022/10/11 02:09:05;;;;;;;10.18;7.25;;;11.60;99.90;;;;;;5184747;28;20436;-72
2022/10/11 02:11:37;;;;;;;12.70;8.68;;;11.60;99.90;;;;;;5200663;28;20506;-72
2022/10/11 02:14:14;;;;;;;12.00;8.45;;;11.60;99.90;;;;;;5222673;28;20035;-72
2022/10/11 02:16:56;;;;;;;14.05;7.78;;;11.60;99.90;;;;;;5222019;28;20515;-72
2022/10/11 02:19:34;;;;;;;11.27;8.20;;;11.60;99.90;;;;;;5224823;28;20033;-72
2022/10/11 02:22:16;;;;;;;13.00;8.05;;;11.60;99.90;;;;;;5232918;28;20202;-72
2022/10/11 02:24:52;;;;;;;12.40;8.48;;;11.60;99.90;;;;;;5222609;28;20032;-72
2022/10/11 02:27:29;;;;;;;11.40;8.27;;;11.50;99.90;;;;;;5187617;28;20035;-71
2022/10/11 02:30:06;;;;;;;12.45;8.60;;;11.40;99.90;;;;;;5204285;28;20028;-72
2022/10/11 02:32:43;;;;;;;11.43;8.30;;;11.40;99.90;;;;;;5203459;28;20036;-72
2022/10/11 02:35:17;;;;;;;11.88;8.02;;;11.40;99.90;;;;;;5221906;28;20027;-72
2022/10/11 02:37:55;;;;;;;;;;;11.30;99.90;;;;;;5221024;28;20067;-72
2022/10/11 02:40:30;;;;;;;10.38;7.72;;;11.30;99.90;;;;;;5212332;28;19919;-72
2022/10/11 02:43:06;;;;;;;12.63;8.23;;;11.30;99.90;;;;;;5209015;28;20036;-72
2022/10/11 02:45:41;;;;;;;11.38;7.80;;;11.20;99.90;;;;;;5220819;28;20023;-72
2022/10/11 02:48:13;;;;;;;15.13;9.88;;;11.20;99.90;;;;;;5229953;28;20454;-72
2022/10/11 02:50:47;;;;;;;13.43;8.55;;;11.20;99.90;;;;;;5242504;28;20028;-72
2022/10/11 02:53:22;;;;;;;11.23;9.00;;;11.20;99.90;;;;;;5224598;28;20044;-72
2022/10/11 02:55:54;;;;;;;12.48;7.47;;;11.20;99.90;;;;;;5208637;28;20034;-73
2022/10/11 02:58:25;;;;;;;11.02;8.82;;;11.30;99.90;;;;;;5226352;28;20033;-73
2022/10/11 03:00:59;;;;;;;11.40;8.43;;;11.30;99.90;;;;;;5224595;28;20681;-72
2022/10/11 03:03:30;;;;;;;10.70;7.72;;;11.40;99.90;;;;;;5204998;28;20029;-73
2022/10/11 03:06:06;;;;;;;12.02;7.78;;;11.50;99.90;;;;;;5210555;28;20104;-72
2022/10/11 03:08:37;;;;;;;11.82;8.05;;;11.60;99.90;;;;;;5201531;28;20040;-73
2022/10/11 03:11:09;;;;;;;10.55;6.55;;;12.10;99.90;;;;;;5167758;28;20044;-72
2022/10/11 03:13:42;;;;;;;10.63;6.63;;;12.50;99.90;;;;;;5221656;28;20031;-72
2022/10/11 03:16:14;;;;;;;8.88;6.40;;;12.90;99.90;;;;;;5202595;28;20040;-72
2022/10/11 03:18:47;;;;;;;6.18;4.57;;;13.10;99.90;;;;;;5184399;28;20036;-73
2022/10/11 03:21:23;;;;;;;9.50;6.13;;;13.40;99.90;;;;;;5201908;28;20037;-73
2022/10/11 03:23:55;;;;;;;9.95;5.80;;;13.60;99.90;;;;;;5202190;28;20031;-72
2022/10/11 03:26:26;;;;;;;11.18;5.82;;;13.70;99.90;;;;;;5201851;28;20035;-72
2022/10/11 03:28:57;;;;;;;9.32;5.40;;;13.80;99.90;;;;;;5222367;28;20036;-73
2022/10/11 03:31:28;;;;;;;7.47;4.82;;;13.80;99.90;;;;;;5241862;28;20481;-72
2022/10/11 03:34:02;;;;;;;7.82;4.95;;;13.80;99.90;;;;;;5241539;28;20040;-72
2022/10/11 03:36:33;;;;;;;9.30;5.43;;;13.70;99.90;;;;;;5195502;28;20051;-74
2022/10/11 03:39:05;;;;;;;8.48;5.00;;;13.70;99.90;;;;;;5212252;28;20024;-74
2022/10/11 03:41:36;;;;;;;7.72;5.03;;;13.60;99.90;;;;;;5221822;28;20318;-73
2022/10/11 03:44:07;;;;;;;9.65;5.65;;;13.50;99.90;;;;;;5222211;28;20029;-75
2022/10/11 03:46:41;;;;;;;9.60;5.65;;;13.50;99.90;;;;;;5186569;28;20032;-75
2022/10/11 03:49:12;;;;;;;10.82;7.35;;;13.50;99.90;;;;;;5221043;28;20035;-74
2022/10/11 03:51:46;;;;;;;10.90;8.45;;;13.40;99.90;;;;;;5203680;28;20051;-74
2022/10/11 03:54:17;;;;;;;13.02;9.45;;;13.10;99.90;;;;;;5203341;28;20053;-74
2022/10/11 03:56:48;;;;;;;12.27;9.07;;;12.90;99.90;;;;;;5221415;28;20375;-74
2022/10/11 03:59:19;;;;;;;11.27;9.18;;;12.70;99.90;;;;;;5203393;28;20039;-74
2022/10/11 04:01:52;;;;;;;12.35;9.57;;;12.50;99.90;;;;;;5222456;28;20071;-74
2022/10/11 04:04:25;;;;;;;14.02;9.48;;;12.30;99.90;;;;;;5193349;28;20060;-74
2022/10/11 04:06:56;;;;;;;15.63;9.85;;;12.10;99.90;;;;;;5222819;28;20043;-74
2022/10/11 04:09:27;;;;;;;14.65;10.07;;;12.10;99.90;;;;;;5221169;28;20492;-74
2022/10/11 04:12:02;;;;;;;12.88;9.75;;;12.00;99.90;;;;;;5232532;28;20039;-74
2022/10/11 04:14:33;;;;;;;14.45;10.38;;;11.90;99.90;;;;;;5224060;28;20025;-74
2022/10/11 04:17:05;;;;;;;19.00;9.85;;;11.90;99.90;;;;;;5224533;28;20047;-73
2022/10/11 04:19:36;;;;;;;15.38;10.50;;;11.90;99.90;;;;;;5220526;28;20052;-73
2022/10/11 04:22:17;;;;;;;15.27;9.63;;;11.90;99.90;;;;;;5208075;28;20128;-73
2022/10/11 04:24:48;;;;;;;15.98;10.57;;;11.80;99.90;;;;;;5225649;28;20425;-73
2022/10/11 04:27:21;;;;;;;16.83;10.23;;;11.90;99.90;;;;;;5225496;28;20360;-73
2022/10/11 04:29:55;;;;;;;18.17;11.17;;;11.80;99.90;;;;;;5224313;28;20033;-73
2022/10/11 04:32:26;;;;;;;15.87;11.47;;;11.90;99.90;;;;;;5224896;28;20249;-73
2022/10/11 04:35:00;;;;;;;17.17;11.15;;;11.80;99.90;;;;;;5188420;28;20047;-72
2022/10/11 04:37:34;;;;;;;16.00;11.23;;;11.80;99.90;;;;;;5227894;28;20048;-73
2022/10/11 04:40:07;;;;;;;17.63;10.73;;;11.80;99.90;;;;;;5226710;28;20934;-73
2022/10/11 04:42:38;;;;;;;17.63;12.02;;;11.70;99.90;;;;;;5223746;28;20024;-74
2022/10/11 04:45:09;;;;;;;17.73;10.90;;;11.70;99.90;;;;;;5224063;28;20033;-74
2022/10/11 04:47:41;;;;;;;16.35;10.30;;;11.70;99.90;;;;;;5220766;28;20495;-72
2022/10/11 04:50:12;;;;;;;9.77;7.95;;;11.80;99.90;;;;;;5224530;28;20037;-73
2022/10/11 04:52:43;;;;;;;15.43;8.02;;;12.00;99.90;;;;;;5196714;28;20025;-72
2022/10/11 04:55:14;;;;;;;12.80;8.20;;;12.20;99.90;;;;;;5216434;28;20039;-73
2022/10/11 04:57:48;;;;;;;15.90;7.95;;;12.40;99.90;;;;;;5206037;28;20034;-73
2022/10/11 05:00:20;;;;;;;11.60;7.35;;;12.60;99.90;;;;;;5227144;28;20036;-73
2022/10/11 05:02:54;;;;;;;11.95;6.38;;;12.70;99.90;;;;;;5220167;28;20044;-74
2022/10/11 05:05:26;;;;;;;15.45;8.50;;;12.70;99.90;;;;;;5216280;28;20507;-73
2022/10/11 05:07:57;;;;;;;9.13;6.30;;;12.80;99.90;;;;;;5227943;28;20041;-73
2022/10/11 05:10:28;;;;;;;11.25;6.53;;;12.80;99.90;;;;;;5203977;28;20044;-73
2022/10/11 05:13:02;;;;;;;17.08;6.45;;;12.90;99.90;;;;;;5222326;28;20037;-73
2022/10/11 05:15:33;;;;;;;13.73;6.35;;;12.80;99.90;;;;;;5213792;28;20033;-72
2022/10/11 05:18:04;;;;;;;11.45;5.53;;;12.80;99.90;;;;;;5213181;28;20076;-73
2022/10/11 05:20:38;;;;;;;9.13;6.22;;;12.80;99.90;;;;;;5211430;28;20037;-73
2022/10/11 05:23:12;;;;;;;11.27;5.63;;;12.70;99.90;;;;;;5212537;28;20043;-73
2022/10/11 05:25:43;;;;;;;9.90;6.05;;;12.80;99.90;;;;;;5213772;28;20029;-72
2022/10/11 05:28:19;;;;;;;14.68;6.25;;;12.90;99.90;;;;;;5217550;28;20246;-72
2022/10/11 05:30:51;;;;;;;10.32;6.63;;;12.90;99.90;;;;;;5215458;28;20025;-73
2022/10/11 05:33:22;;;;;;;10.00;7.72;;;12.80;99.90;;;;;;5220143;28;20025;-72
2022/10/11 05:35:54;;;;;;;13.48;7.03;;;12.80;99.90;;;;;;5215927;28;20027;-73
2022/10/11 05:38:25;;;;;;;10.70;6.45;;;12.80;99.90;;;;;;5214290;28;20399;-73
2022/10/11 05:41:01;;;;;;;13.43;6.65;;;12.70;99.90;;;;;;5211684;28;20021;-72
2022/10/11 05:43:38;;;;;;;13.45;6.18;;;12.70;99.90;;;;;;5180912;28;20032;-72
2022/10/11 05:46:11;;;;;;;10.35;6.75;;;12.60;99.90;;;;;;5220417;28;20043;-72
2022/10/11 05:48:42;;;;;;;11.95;8.75;;;12.60;99.90;;;;;;5205447;28;20475;-72
2022/10/11 05:51:13;;;;;;;13.90;9.65;;;12.50;99.90;;;;;;5219952;28;20036;-72
2022/10/11 05:53:44;;;;;;;23.05;14.38;;;12.30;99.90;;;;;;5204064;28;20028;-72
2022/10/11 05:56:24;;;;;;;18.80;11.65;;;12.10;99.90;;;;;;5232946;28;20038;-72
2022/10/11 05:58:55;;;;;;;15.88;10.82;;;11.90;99.90;;;;;;5237277;28;20614;-72
2022/10/11 06:01:27;;;;;;;18.50;11.63;;;11.80;99.90;;;;;;5213254;28;20045;-72
2022/10/11 06:03:58;;;;;;;17.27;11.38;;;11.80;99.90;;;;;;5210115;28;20055;-72
2022/10/11 06:06:29;;;;;;;19.35;11.77;;;11.90;99.90;;;;;;5177701;28;20040;-73
2022/10/11 06:09:00;;;;;;;18.25;10.55;;;11.80;99.90;;;;;;5222216;28;20039;-73
2022/10/11 06:11:34;;;;;;;19.00;12.18;;;11.90;99.90;;;;;;5197716;28;20020;-73
2022/10/11 06:14:08;;;;;;;23.27;13.50;;;12.00;99.90;;;;;;5216328;28;20030;-73
2022/10/11 06:16:43;;;;;;;24.08;13.43;;;12.10;99.90;;;;;;5221461;28;20122;-72
2022/10/11 06:19:14;;;;;;;20.23;12.55;;;12.10;99.90;;;;;;5200519;28;20021;-73
2022/10/11 06:21:48;;;;;;;21.35;12.35;;;12.10;99.90;;;;;;5207635;28;20033;-73
2022/10/11 06:24:25;;;;;;;18.10;10.93;;;12.10;99.90;;;;;;5224631;28;20040;-73
2022/10/11 06:26:59;;;;;;;14.90;10.48;;;12.00;99.90;;;;;;5225151;28;20032;-73
2022/10/11 06:29:33;;;;;;;21.92;10.75;;;12.00;99.90;;;;;;5224755;28;21557;-72
2022/10/11 06:32:12;;;;;;;19.13;12.05;;;12.10;99.90;;;;;;5211428;28;20032;-71
2022/10/11 06:34:43;;;;;;;13.70;8.30;;;12.30;99.90;;;;;;5188685;28;20063;-72
2022/10/11 06:37:16;;;;;;;12.38;7.07;;;12.80;99.90;;;;;;5222273;28;20564;-71
2022/10/11 06:39:49;;;;;;;14.48;6.82;;;13.50;99.90;;;;;;5221174;28;20119;-72
2022/10/11 06:42:25;;;;;;;9.68;5.85;;;14.20;99.90;;;;;;5233294;28;20024;-70
2022/10/11 06:44:59;;;;;;;7.47;5.28;;;14.60;99.90;;;;;;5237420;28;20017;-71
2022/10/11 06:47:30;;;;;;;11.60;5.07;;;14.90;99.90;;;;;;5201968;28;20464;-71
2022/10/11 06:50:05;;;;;;;9.40;5.60;;;15.20;99.90;;;;;;5223780;28;20034;-72
2022/10/11 06:52:39;;;;;;;;;;;15.40;99.90;;;;;;5224896;28;20070;-73
2022/10/11 06:55:10;;;;;;;8.15;5.47;;;15.60;99.90;;;;;;5220998;28;19911;-71
2022/10/11 06:57:41;;;;;;;8.18;4.90;;;15.70;99.90;;;;;;5219158;28;20451;-71
2022/10/11 07:00:13;;;;;;;8.43;5.35;;;15.80;99.90;;;;;;5215580;28;20043;-71
2022/10/11 07:02:50;;;;;;;7.32;4.85;;;15.80;99.90;;;;;;5207091;28;20066;-72
2022/10/11 07:05:28;;;;;;;6.47;4.88;;;15.90;99.90;;;;;;5208121;28;20051;-73
2022/10/11 07:08:00;;;;;;;7.82;4.75;;;15.90;99.90;;;;;;5223919;28;20467;-72
2022/10/11 07:10:31;;;;;;;8.52;5.30;;;15.90;99.90;;;;;;5220726;28;20029;-73
2022/10/11 07:13:02;;;;;;;10.52;4.65;;;16.00;99.90;;;;;;5237991;28;20023;-72
2022/10/11 07:15:40;;;;;;;11.43;5.50;;;16.10;99.90;;;;;;5241717;28;20396;-71
2022/10/11 07:18:11;;;;;;;7.00;4.82;;;16.20;99.90;;;;;;5214812;28;20039;-72
2022/10/11 07:20:42;;;;;;;8.50;6.03;;;16.20;99.90;;;;;;5223378;28;20044;-73
2022/10/11 07:23:44;;;;;;;10.75;5.68;;;16.20;99.90;;;;;;5200014;28;20041;-73
2022/10/11 07:26:16;;;;;;;8.77;5.22;;;16.40;99.90;;;;;;5196957;28;20040;-73
2022/10/11 07:28:48;;;;;;;11.82;4.78;;;16.50;99.90;;;;;;5217484;28;20020;-73
2022/10/11 07:31:22;;;;;;;6.93;4.93;;;16.50;99.90;;;;;;5202383;28;20025;-73
2022/10/11 07:33:54;;;;;;;8.35;5.68;;;16.40;99.90;;;;;;5221112;28;20478;-73
2022/10/11 07:36:25;;;;;;;8.68;4.63;;;16.40;99.90;;;;;;5219401;28;20033;-73
2022/10/11 07:38:56;;;;;;;11.20;5.28;;;16.30;99.90;;;;;;5221002;28;20534;-72
2022/10/11 07:41:29;;;;;;;20.33;9.07;;;16.50;99.90;;;;;;5207635;28;20129;-73
2022/10/11 07:44:02;;;;;;;12.43;7.28;;;16.90;99.90;;;;;;5224406;28;20042;-73
2022/10/11 07:46:33;;;;;;;12.82;6.85;;;17.20;99.90;;;;;;5225683;28;20385;-73
2022/10/11 07:49:04;;;;;;;15.75;7.32;;;17.10;99.90;;;;;;5203072;28;20044;-73
2022/10/11 07:51:35;;;;;;;12.25;6.95;;;17.30;99.90;;;;;;5221015;28;20379;-72
2022/10/11 07:54:06;;;;;;;12.55;6.95;;;17.30;99.90;;;;;;5203320;28;20033;-74
2022/10/11 07:56:39;;;;;;;14.55;7.60;;;17.40;99.90;;;;;;5213171;28;20664;-73
2022/10/11 07:59:14;;;;;;;8.02;6.25;;;17.70;99.90;;;;;;5221063;28;20709;-73
2022/10/11 08:01:45;;;;;;;9.65;6.90;;;17.90;99.90;;;;;;5186358;28;20049;-73
2022/10/11 08:04:17;;;;;;;10.55;7.65;;;17.90;99.90;;;;;;5210649;28;20191;-73
2022/10/11 08:06:48;;;;;;;9.30;6.63;;;18.30;99.90;;;;;;5203656;28;20506;-73
2022/10/11 08:09:19;;;;;;;10.13;7.32;;;18.40;99.90;;;;;;5202008;28;20078;-73
2022/10/11 08:11:53;;;;;;;10.75;7.15;;;18.70;99.90;;;;;;5202888;28;20029;-73
2022/10/11 08:14:26;;;;;;;11.25;6.43;;;18.70;99.90;;;;;;5202447;28;20033;-73
2022/10/11 08:16:58;;;;;;;6.20;4.57;;;18.40;99.90;;;;;;5220421;28;20016;-73
2022/10/11 08:19:32;;;;;;;6.50;3.97;;;18.10;99.90;;;;;;5219703;28;20029;-73
2022/10/11 08:22:03;;;;;;;10.63;5.13;;;17.70;99.90;;;;;;5219854;28;20025;-72
2022/10/11 08:24:34;;;;;;;6.93;4.25;;;18.00;99.90;;;;;;5206985;28;20045;-73
2022/10/11 08:27:05;;;;;;;8.07;4.93;;;18.20;99.90;;;;;;5202928;28;20025;-72
2022/10/11 08:29:40;;;;;;;6.63;4.65;;;18.70;99.90;;;;;;5220133;28;20032;-73
2022/10/11 08:32:13;;;;;;;11.88;5.55;;;18.60;99.90;;;;;;5203329;28;20028;-72
2022/10/11 08:34:45;;;;;;;11.02;5.25;;;18.50;99.90;;;;;;5215839;28;20034;-73
2022/10/11 08:37:16;;;;;;;7.55;4.70;;;18.00;99.90;;;;;;5214165;28;20056;-73
2022/10/11 08:39:49;;;;;;;9.20;4.93;;;17.90;99.90;;;;;;5211928;28;20033;-73
2022/10/11 08:43:01;;;;;;;7.22;5.10;;;18.10;99.90;;;;;;5213335;28;20035;-73
2022/10/11 08:45:44;;;;;;;8.50;4.70;;;18.30;99.90;;;;;;5219946;28;20035;-73
2022/10/11 08:48:37;;;;;;;9.55;4.63;;;18.70;99.90;;;;;;5218110;28;20025;-73
2022/10/11 08:51:22;;;;;;;7.43;4.72;;;19.20;99.90;;;;;;5215875;28;20286;-73
2022/10/11 08:54:03;;;;;;;8.60;5.75;;;18.80;99.90;;;;;;5217888;28;20333;-73
2022/10/11 08:56:38;;;;;;;6.55;4.75;;;18.90;99.90;;;;;;5193498;28;20033;-73
2022/10/11 08:59:12;;;;;;;9.20;4.80;;;18.70;99.90;;;;;;5214963;28;20035;-73
2022/10/11 09:01:51;;;;;;;9.27;4.55;;;18.90;99.90;;;;;;5196528;28;20451;-73
2022/10/11 09:04:25;;;;;;;7.05;4.15;;;18.80;99.90;;;;;;5225962;28;20043;-73
2022/10/11 09:07:08;;;;;;;5.27;4.53;;;19.20;99.90;;;;;;5242847;28;20501;-72
2022/10/11 09:09:57;;;;;;;9.55;4.72;;;18.80;99.90;;;;;;5244211;28;20025;-73
2022/10/11 09:12:44;;;;;;;7.47;4.97;;;19.10;99.90;;;;;;5244693;28;20027;-73
2022/10/11 09:15:40;;;;;;;7.65;3.90;;;18.80;99.90;;;;;;5236095;28;20025;-73
2022/10/11 09:18:26;;;;;;;6.68;4.32;;;19.20;99.90;;;;;;5214364;28;20031;-73
2022/10/11 09:21:16;;;;;;;6.43;4.68;;;18.90;99.90;;;;;;5232552;28;20030;-73
2022/10/11 09:23:56;;;;;;;8.65;4.38;;;18.80;99.90;;;;;;5186147;28;20029;-72
2022/10/11 09:26:41;;;;;;;5.70;4.03;;;19.00;99.90;;;;;;5237534;28;20020;-72
2022/10/11 09:29:26;;;;;;;6.53;3.75;;;19.80;99.90;;;;;;5205910;28;20031;-72
2022/10/11 09:31:59;;;;;;;;;;;20.20;99.90;;;;;;5223068;28;20581;-73
2022/10/11 09:34:32;;;;;;;5.90;3.90;;;19.80;99.90;;;;;;5223774;28;19916;-73
2022/10/11 09:37:18;;;;;;;6.72;4.03;;;19.20;99.90;;;;;;5243797;28;20030;-73
2022/10/11 09:39:59;;;;;;;6.85;4.25;;;19.10;99.90;;;;;;5242467;28;20044;-73
2022/10/11 09:42:32;;;;;;;11.02;4.60;;;19.60;99.90;;;;;;5231842;28;20033;-73
2022/10/11 09:45:16;;;;;;;9.88;3.80;;;19.90;99.90;;;;;;5222786;28;20033;-73
2022/10/11 09:47:56;;;;;;;7.47;3.90;;;19.80;99.90;;;;;;5227299;28;20026;-73
2022/10/11 09:50:30;;;;;;;11.73;4.15;;;20.00;99.90;;;;;;5232375;28;20029;-73
2022/10/11 09:53:03;;;;;;;11.52;4.22;;;19.90;99.90;;;;;;5198155;28;20045;-73
2022/10/11 09:55:54;;;;;;;8.80;4.33;;;19.90;99.90;;;;;;5222712;28;20037;-73
2022/10/11 09:58:32;;;;;;;8.57;4.05;;;20.50;99.90;;;;;;5222864;28;20284;-71
2022/10/11 10:01:20;;;;;;;12.13;4.82;;;20.40;99.90;;;;;;5218297;28;20349;-73
2022/10/11 10:04:10;;;;;;;9.65;3.90;;;20.00;99.90;;;;;;5221204;28;20459;-73
2022/10/11 10:06:44;;;;;;;6.68;3.83;;;20.10;99.90;;;;;;5193316;28;20059;-73
2022/10/11 10:09:25;;;;;;;8.45;4.32;;;20.70;99.90;;;;;;5204962;28;20017;-73
2022/10/11 10:11:57;;;;;;;5.78;3.20;;;21.30;99.90;;;;;;5229947;28;20029;-72
2022/10/11 10:14:37;;;;;;;9.27;4.05;;;21.90;99.90;;;;;;5225969;28;20366;-73
2022/10/11 10:17:17;;;;;;;4.47;3.75;;;23.20;99.90;;;;;;5242178;28;20186;-73
2022/10/11 10:19:59;;;;;;;12.55;3.50;;;22.40;99.90;;;;;;5205968;28;20063;-72
2022/10/11 10:22:33;;;;;;;8.88;4.05;;;21.70;99.90;;;;;;5213602;28;20031;-73
2022/10/11 10:25:20;;;;;;;6.90;3.30;;;21.50;99.90;;;;;;5184788;28;20371;-73
2022/10/11 10:28:01;;;;;;;9.00;4.65;;;22.80;99.90;;;;;;5201893;28;20471;-73
2022/10/11 10:30:32;;;;;;;13.90;4.03;;;22.20;99.90;;;;;;5186931;28;20009;-73
2022/10/11 10:33:09;;;;;;;6.80;3.42;;;23.00;99.90;;;;;;5221611;28;20025;-72
2022/10/11 10:35:47;;;;;;;5.97;3.70;;;23.10;99.90;;;;;;5220592;28;20051;-73
2022/10/11 10:38:44;;;;;;;5.07;3.00;;;23.60;99.90;;;;;;5223879;28;20024;-72
2022/10/11 10:41:17;;;;;;;5.30;2.90;;;24.80;99.90;;;;;;5204892;28;20025;-72
2022/10/11 10:43:53;;;;;;;7.70;3.22;;;23.80;99.90;;;;;;5204434;28;20237;-73
2022/10/11 10:46:30;;;;;;;10.93;3.35;;;23.80;99.90;;;;;;5208430;28;20032;-71
2022/10/11 10:49:31;;;;;;;5.15;2.83;;;22.80;99.90;;;;;;5223939;28;20043;-73
2022/10/11 10:52:20;;;;;;;9.90;2.72;;;22.50;99.90;;;;;;5214593;28;20471;-73
2022/10/11 10:55:34;;;;;;;4.45;2.75;;;22.60;99.90;;;;;;5220661;28;20031;-72
2022/10/11 10:58:28;;;;;;;7.82;2.85;;;22.60;99.90;;;;;;5221517;28;20021;-73
2022/10/11 11:01:09;;;;;;;9.77;2.53;;;21.60;99.90;;;;;;5221547;28;20033;-73
2022/10/11 11:03:46;;;;;;;7.15;2.65;;;21.80;99.90;;;;;;5214453;28;20029;-73
2022/10/11 11:06:25;;;;;;;7.38;2.70;;;22.70;99.90;;;;;;5207825;28;20045;-73
2022/10/11 11:09:44;;;;;;;8.10;2.65;;;23.50;99.90;;;;;;5195275;28;20036;-73
2022/10/11 11:12:45;;;;;;;6.03;2.83;;;23.00;99.90;;;;;;5164321;28;20271;-72
2022/10/11 11:15:33;;;;;;;7.78;2.72;;;22.40;99.90;;;;;;5191738;28;20017;-73
2022/10/11 11:18:37;;;;;;;5.93;2.75;;;22.10;99.90;;;;;;5199788;28;20567;-73
2022/10/11 11:21:34;;;;;;;6.93;2.67;;;23.50;99.90;;;;;;5202111;28;20031;-73
2022/10/11 11:24:31;;;;;;;5.28;3.03;;;23.30;99.90;;;;;;5218299;28;20023;-73
2022/10/11 11:27:27;;;;;;;7.70;2.78;;;23.30;99.90;;;;;;5219772;28;20029;-73
2022/10/11 11:30:39;;;;;;;6.72;3.08;;;23.60;99.90;;;;;;5202534;28;20029;-73
2022/10/11 11:33:29;;;;;;;5.50;2.80;;;24.50;99.90;;;;;;5136965;28;20047;-74
2022/10/11 11:36:04;;;;;;;5.85;2.70;;;24.50;99.90;;;;;;5153348;28;20034;-73
2022/10/11 11:39:00;;;;;;;4.00;1.95;;;24.50;99.90;;;;;;5177179;28;20052;-73
2022/10/11 11:41:43;;;;;;;7.93;2.33;;;25.10;99.90;;;;;;5177228;28;20338;-73
2022/10/11 11:44:31;;;;;;;4.50;2.55;;;26.10;99.90;;;;;;5207368;28;20044;-73
2022/10/11 11:47:37;;;;;;;8.63;2.50;;;26.00;99.90;;;;;;5219284;28;20013;-73
2022/10/11 11:50:14;;;;;;;7.45;3.10;;;25.70;99.90;;;;;;5193389;28;20224;-73
2022/10/11 11:52:53;;;;;;;2.60;2.17;;;24.40;99.90;;;;;;5207116;28;20013;-73
2022/10/11 11:55:29;;;;;;;5.68;2.28;;;25.10;99.90;;;;;;5194841;28;20043;-73
2022/10/11 11:58:00;;;;;;;8.50;3.25;;;23.80;99.90;;;;;;5186500;28;20048;-73
2022/10/11 12:00:41;;;;;;;4.93;3.03;;;23.40;99.90;;;;;;5199720;28;20043;-73
2022/10/11 12:03:19;;;;;;;8.00;3.40;;;23.50;99.90;;;;;;5213433;28;20025;-73
2022/10/11 12:06:12;;;;;;;6.43;2.97;;;23.60;99.90;;;;;;5183030;28;20043;-73
2022/10/11 12:09:00;;;;;;;8.80;3.00;;;24.40;99.90;;;;;;5210802;28;20009;-73
2022/10/11 12:11:58;;;;;;;11.68;3.42;;;25.50;99.90;;;;;;5210404;28;20502;-73
2022/10/11 12:14:32;;;;;;;4.00;3.13;;;25.50;99.90;;;;;;5208759;28;20463;-73
2022/10/11 12:17:25;;;;;;;5.95;3.28;;;25.50;99.90;;;;;;5208559;28;20021;-73
2022/10/11 12:20:19;;;;;;;4.28;2.90;;;25.30;99.90;;;;;;5181872;28;20041;-72
2022/10/11 12:23:00;;;;;;;8.68;3.33;;;25.10;99.90;;;;;;5183145;28;20036;-72
2022/10/11 12:25:39;;;;;;;4.45;2.72;;;25.30;99.90;;;;;;5202050;28;20452;-71
2022/10/11 12:28:35;;;;;;;5.47;2.72;;;24.70;99.90;;;;;;5200146;28;20035;-73
2022/10/11 12:31:39;;;;;;;5.38;2.90;;;23.50;99.90;;;;;;5222230;28;20036;-71
2022/10/11 12:34:28;;;;;;;5.80;3.15;;;23.50;99.90;;;;;;5229569;28;20111;-71
2022/10/11 12:37:19;;;;;;;5.55;3.38;;;23.80;99.90;;;;;;5207222;28;20029;-73
2022/10/11 12:39:55;;;;;;;4.05;2.45;;;24.30;99.90;;;;;;5222305;28;20037;-73
2022/10/11 12:42:35;;;;;;;4.57;2.90;;;24.30;99.90;;;;;;5215111;28;20029;-73
2022/10/11 12:45:12;;;;;;;6.45;2.80;;;24.40;99.90;;;;;;5217147;28;20025;-73
2022/10/11 12:48:04;;;;;;;7.15;2.60;;;23.80;99.90;;;;;;5198248;28;20039;-73
2022/10/11 12:51:12;;;;;;;4.72;2.92;;;25.50;99.90;;;;;;5223343;28;20025;-71
2022/10/11 12:54:03;;;;;;;7.97;2.97;;;25.70;99.90;;;;;;5206033;28;20025;-72
2022/10/11 12:56:54;;;;;;;7.15;3.00;;;24.50;99.90;;;;;;5227519;28;20039;-71
2022/10/11 12:59:28;;;;;;;4.10;2.83;;;25.20;99.90;;;;;;5221240;28;20020;-72
2022/10/11 13:02:00;;;;;;;7.32;3.17;;;24.50;99.90;;;;;;5202359;28;20044;-72
2022/10/11 13:04:32;;;;;;;5.90;2.75;;;24.90;99.90;;;;;;5197304;28;20036;-72
2022/10/11 13:07:22;;;;;;;6.03;3.00;;;26.50;99.90;;;;;;5231445;28;20034;-71
2022/10/11 13:09:54;;;;;;;4.03;2.75;;;25.40;99.90;;;;;;5206285;28;20033;-73
2022/10/11 13:12:29;;;;;;;6.15;3.00;;;25.00;99.90;;;;;;5218950;28;20498;-73
2022/10/11 13:15:08;;;;;;;5.80;2.58;;;24.70;99.90;;;;;;5186907;28;20028;-72
2022/10/11 13:17:40;;;;;;;7.57;2.70;;;23.40;99.90;;;;;;5210952;28;20393;-73
2022/10/11 13:20:19;;;;;;;5.82;2.83;;;23.00;99.90;;;;;;5210284;28;20040;-73
2022/10/11 13:22:54;;;;;;;5.47;2.72;;;23.70;99.90;;;;;;5235279;28;20037;-72
2022/10/11 13:25:28;;;;;;;10.75;2.90;;;24.50;99.90;;;;;;5234893;28;20032;-72
2022/10/11 13:27:59;;;;;;;5.30;2.67;;;25.10;99.90;;;;;;5226335;28;20028;-72
2022/10/11 13:30:33;;;;;;;5.53;3.22;;;25.10;99.90;;;;;;5232616;28;20029;-73
2022/10/11 13:33:17;;;;;;;6.40;3.60;;;25.10;99.90;;;;;;5210221;28;20032;-72
2022/10/11 13:35:50;;;;;;;6.00;2.60;;;25.10;99.90;;;;;;5187933;28;20234;-72